createdAt,value
2018-02-14T00:00:41.303Z,76.40
2018-02-14T00:03:08.868Z,76.90
2018-02-14T00:05:36.463Z,77.50
2018-02-14T00:08:04.065Z,77.80
2018-02-14T00:10:32.419Z,78.10
2018-02-14T00:12:59.974Z,78.80
2018-02-14T00:15:27.580Z,78.10
2018-02-14T00:17:55.157Z,78.30
2018-02-14T00:20:22.738Z,78.50
2018-02-14T00:22:50.318Z,78.80
2018-02-14T00:25:18.759Z,78.70
2018-02-14T00:27:47.376Z,78.60
2018-02-14T00:30:14.945Z,78.70
2018-02-14T00:32:42.507Z,79.10
2018-02-14T00:35:10.101Z,79.60
2018-02-14T00:37:37.664Z,80.00
2018-02-14T00:40:05.266Z,80.20
2018-02-14T00:42:32.815Z,80.20
2018-02-14T00:45:00.387Z,79.80
2018-02-14T00:47:28.003Z,79.20
2018-02-14T00:49:55.613Z,78.70
2018-02-14T00:52:23.170Z,78.70
2018-02-14T00:54:50.751Z,78.80
2018-02-14T00:57:18.348Z,78.80
2018-02-14T00:59:45.879Z,78.70
2018-02-14T01:02:13.453Z,78.70
2018-02-14T01:04:41.006Z,78.70
2018-02-14T01:07:09.365Z,79.70
2018-02-14T01:09:36.926Z,79.70
2018-02-14T01:12:04.526Z,79.90
2018-02-14T01:14:32.108Z,80.40
2018-02-14T01:17:00.461Z,80.90
2018-02-14T01:19:28.032Z,80.90
2018-02-14T01:21:55.617Z,80.90
2018-02-14T01:24:23.188Z,80.90
2018-02-14T01:26:50.775Z,80.70
2018-02-14T01:29:18.332Z,80.90
2018-02-14T01:31:45.936Z,81.10
2018-02-14T01:34:14.273Z,81.10
2018-02-14T01:36:41.860Z,81.00
2018-02-14T01:39:09.437Z,81.20
2018-02-14T01:41:37.022Z,81.40
2018-02-14T01:44:04.585Z,81.20
2018-02-14T01:46:32.184Z,81.30
2018-02-14T01:48:59.738Z,81.40
2018-02-14T01:51:27.319Z,80.90
2018-02-14T01:53:54.868Z,81.40
2018-02-14T01:56:22.505Z,81.30
2018-02-14T01:58:50.066Z,82.10
2018-02-14T02:01:17.640Z,81.10
2018-02-14T02:03:45.259Z,80.80
2018-02-14T02:06:12.827Z,80.70
2018-02-14T02:11:14.052Z,79.40
2018-02-14T02:13:41.616Z,79.40
2018-02-14T02:16:09.146Z,79.20
2018-02-14T02:18:36.703Z,78.90
2018-02-14T02:21:04.265Z,78.90
2018-02-14T02:23:31.853Z,78.90
2018-02-14T02:25:59.392Z,78.60
2018-02-14T02:28:27.737Z,78.60
2018-02-14T02:30:55.325Z,78.60
2018-02-14T02:33:22.903Z,78.60
2018-02-14T02:35:50.468Z,78.60
2018-02-14T02:38:18.050Z,78.60
2018-02-14T02:40:45.602Z,78.70
2018-02-14T02:43:13.165Z,78.70
2018-02-14T02:45:40.719Z,78.70
2018-02-14T02:48:08.324Z,78.70
2018-02-14T02:50:35.883Z,78.70
2018-02-14T02:53:03.454Z,78.60
2018-02-14T02:55:31.036Z,78.50
2018-02-14T02:57:58.613Z,78.60
2018-02-14T03:00:26.147Z,78.80
2018-02-14T03:02:53.688Z,79.20
2018-02-14T03:05:21.244Z,79.70
2018-02-14T03:07:48.797Z,79.60
2018-02-14T03:10:16.374Z,79.80
2018-02-14T03:12:44.690Z,79.70
2018-02-14T03:15:12.270Z,79.70
2018-02-14T03:17:39.821Z,79.60
2018-02-14T03:20:07.395Z,79.50
2018-02-14T03:22:34.944Z,79.70
2018-02-14T03:25:02.518Z,80.50
2018-02-14T03:27:30.056Z,79.80
2018-02-14T03:29:58.395Z,79.70
2018-02-14T03:32:25.957Z,79.60
2018-02-14T03:34:53.545Z,79.60
2018-02-14T03:37:21.099Z,79.20
2018-02-14T03:39:48.666Z,79.00
2018-02-14T03:42:16.221Z,78.80
2018-02-14T03:44:44.079Z,79.00
2018-02-14T03:47:12.394Z,79.50
2018-02-14T03:49:39.949Z,79.40
2018-02-14T03:52:07.520Z,79.70
2018-02-14T03:54:35.108Z,80.10
2018-02-14T03:57:02.657Z,80.20
2018-02-14T03:59:31.015Z,80.10
2018-02-14T04:01:58.582Z,80.10
2018-02-14T04:04:26.157Z,79.80
2018-02-14T04:06:53.720Z,79.80
2018-02-14T04:11:55.924Z,80.50
2018-02-14T04:14:23.470Z,80.50
2018-02-14T04:16:51.049Z,80.90
2018-02-14T04:19:18.587Z,81.10
2018-02-14T04:21:46.928Z,81.80
2018-02-14T04:24:14.467Z,81.80
2018-02-14T04:26:42.040Z,82.00
2018-02-14T04:29:09.582Z,82.50
2018-02-14T04:31:37.164Z,82.20
2018-02-14T04:34:05.485Z,81.70
2018-02-14T04:36:33.055Z,81.70
2018-02-14T04:39:00.593Z,81.90
2018-02-14T04:41:28.157Z,81.30
2018-02-14T04:43:55.711Z,81.00
2018-02-14T04:46:23.299Z,81.70
2018-02-14T04:48:50.858Z,81.50
2018-02-14T04:51:18.410Z,81.80
2018-02-14T04:53:45.954Z,81.80
2018-02-14T04:56:13.525Z,81.70
2018-02-14T04:58:41.063Z,81.60
2018-02-14T05:01:08.629Z,81.60
2018-02-14T05:03:36.180Z,81.70
2018-02-14T05:06:03.749Z,81.70
2018-02-14T05:08:31.301Z,81.70
2018-02-14T05:10:58.888Z,81.70
2018-02-14T05:13:27.441Z,81.60
2018-02-14T05:15:56.085Z,81.60
2018-02-14T05:18:23.645Z,81.60
2018-02-14T05:20:51.197Z,81.70
2018-02-14T05:23:18.734Z,81.90
2018-02-14T05:25:46.305Z,82.00
2018-02-14T05:28:14.648Z,82.50
2018-02-14T05:30:42.178Z,82.40
2018-02-14T05:33:10.505Z,81.80
2018-02-14T05:35:38.047Z,81.70
2018-02-14T05:38:06.367Z,81.70
2018-02-14T05:40:33.919Z,81.70
2018-02-14T05:43:01.494Z,81.70
2018-02-14T05:45:29.043Z,81.80
2018-02-14T05:47:56.608Z,81.60
2018-02-14T05:50:24.921Z,81.90
2018-02-14T05:52:52.480Z,81.70
2018-02-14T05:55:20.790Z,81.00
2018-02-14T05:57:48.360Z,80.90
2018-02-14T06:00:15.914Z,81.00
2018-02-14T06:02:44.253Z,81.80
2018-02-14T06:05:12.022Z,81.80
2018-02-14T06:07:39.577Z,81.40
2018-02-14T06:10:07.141Z,81.20
2018-02-14T06:12:35.493Z,81.70
2018-02-14T06:15:03.030Z,81.70
2018-02-14T06:17:31.375Z,81.90
2018-02-14T06:19:59.699Z,81.90
2018-02-14T06:22:27.278Z,81.90
2018-02-14T06:24:54.849Z,81.90
2018-02-14T06:27:22.442Z,81.90
2018-02-14T06:29:49.996Z,82.10
2018-02-14T06:32:17.552Z,82.00
2018-02-14T06:34:45.130Z,81.90
2018-02-14T06:37:12.676Z,81.90
2018-02-14T06:39:41.003Z,81.70
2018-02-14T06:42:08.557Z,81.60
2018-02-14T06:44:36.115Z,81.60
2018-02-14T06:47:03.665Z,81.40
2018-02-14T06:49:31.236Z,81.10
2018-02-14T06:51:59.560Z,80.50
2018-02-14T06:54:27.189Z,80.50
2018-02-14T06:56:54.736Z,80.20
2018-02-14T06:59:22.303Z,80.30
2018-02-14T07:01:49.854Z,80.10
2018-02-14T07:04:17.431Z,80.00
2018-02-14T07:06:44.973Z,80.00
2018-02-14T07:09:13.328Z,79.60
2018-02-14T07:11:40.874Z,79.60
2018-02-14T07:14:08.437Z,79.70
2018-02-14T07:16:35.985Z,80.00
2018-02-14T07:19:03.548Z,79.80
2018-02-14T07:21:31.870Z,79.50
2018-02-14T07:23:59.457Z,79.40
2018-02-14T07:26:27.005Z,79.30
2018-02-14T07:28:54.569Z,79.40
2018-02-14T07:31:22.125Z,78.70
2018-02-14T07:33:50.466Z,78.90
2018-02-14T07:36:18.025Z,78.80
2018-02-14T07:38:45.639Z,78.30
2018-02-14T07:41:13.197Z,78.80
2018-02-14T07:43:40.756Z,78.20
2018-02-14T07:46:08.346Z,78.30
2018-02-14T07:48:35.895Z,78.40
2018-02-14T07:51:03.551Z,78.30
2018-02-14T07:53:31.096Z,78.10
2018-02-14T07:55:59.516Z,77.80
2018-02-14T07:58:27.061Z,77.80
2018-02-14T08:00:55.389Z,77.40
2018-02-14T08:03:22.940Z,77.40
2018-02-14T08:05:50.540Z,77.50
2018-02-14T08:08:18.101Z,77.50
2018-02-14T08:10:45.676Z,77.60
2018-02-14T08:13:13.233Z,77.60
2018-02-14T08:15:40.794Z,78.00
2018-02-14T08:18:08.361Z,77.70
2018-02-14T08:20:35.945Z,77.70
2018-02-14T08:23:03.494Z,77.50
2018-02-14T08:25:31.829Z,77.20
2018-02-14T08:27:59.429Z,77.10
2018-02-14T08:30:26.980Z,77.50
2018-02-14T08:32:54.528Z,77.00
2018-02-14T08:35:22.090Z,77.20
2018-02-14T08:37:49.637Z,76.70
2018-02-14T08:40:17.203Z,76.10
2018-02-14T08:42:44.751Z,76.20
2018-02-14T08:45:12.308Z,76.20
2018-02-14T08:47:39.870Z,75.70
2018-02-14T08:50:07.448Z,75.80
2018-02-14T08:52:34.994Z,75.50
2018-02-14T08:55:03.336Z,75.10
2018-02-14T08:57:30.880Z,75.10
2018-02-14T08:59:58.438Z,74.90
2018-02-14T09:02:26.009Z,74.50
2018-02-14T09:04:53.575Z,74.60
2018-02-14T09:07:22.384Z,74.30
2018-02-14T09:09:49.972Z,74.10
2018-02-14T09:12:17.553Z,73.80
2018-02-14T09:14:45.093Z,73.80
2018-02-14T09:17:12.650Z,74.20
2018-02-14T09:19:40.953Z,73.40
2018-02-14T09:22:09.273Z,73.30
2018-02-14T09:24:36.813Z,73.30
2018-02-14T09:27:04.413Z,73.40
2018-02-14T09:29:31.964Z,73.50
2018-02-14T09:31:59.533Z,73.30
2018-02-14T09:34:27.838Z,72.60
2018-02-14T09:36:55.406Z,72.60
2018-02-14T09:39:22.959Z,72.50
2018-02-14T09:41:51.299Z,72.50
2018-02-14T09:44:19.610Z,72.00
2018-02-14T09:46:47.189Z,72.00
2018-02-14T09:49:14.766Z,72.00
2018-02-14T09:51:42.322Z,72.60
2018-02-14T09:54:09.873Z,73.20
2018-02-14T09:56:38.206Z,71.70
2018-02-14T09:59:06.498Z,71.60
2018-02-14T10:01:34.832Z,71.20
2018-02-14T10:04:02.375Z,71.10
2018-02-14T10:06:29.949Z,71.50
2018-02-14T10:08:57.510Z,71.60
2018-02-14T10:11:25.836Z,70.40
2018-02-14T10:13:53.393Z,70.40
2018-02-14T10:16:20.950Z,70.30
2018-02-14T10:18:49.260Z,70.80
2018-02-14T10:21:16.839Z,70.80
2018-02-14T10:23:44.382Z,70.60
2018-02-14T10:26:12.760Z,70.00
2018-02-14T10:28:41.068Z,70.20
2018-02-14T10:31:09.375Z,69.70
2018-02-14T10:33:36.940Z,69.60
2018-02-14T10:36:04.514Z,70.30
2018-02-14T10:38:32.067Z,69.80
2018-02-14T10:41:00.368Z,68.00
2018-02-14T10:43:27.930Z,67.80
2018-02-14T10:45:57.240Z,67.60
2018-02-14T10:48:25.566Z,67.30
2018-02-14T10:50:53.118Z,67.20
2018-02-14T10:53:20.683Z,67.30
2018-02-14T10:55:48.213Z,67.30
2018-02-14T10:58:15.769Z,67.30
2018-02-14T11:00:49.067Z,67.40
2018-02-14T11:03:22.319Z,66.70
2018-02-14T11:05:56.271Z,66.80
2018-02-14T11:08:23.835Z,66.80
2018-02-14T11:10:51.376Z,66.30
2018-02-14T11:13:18.943Z,66.40
2018-02-14T11:15:46.485Z,66.10
2018-02-14T11:18:14.040Z,65.50
2018-02-14T11:20:41.594Z,65.60
2018-02-14T11:23:09.166Z,65.70
2018-02-14T11:25:37.481Z,65.60
2018-02-14T11:28:05.029Z,65.50
2018-02-14T11:30:32.558Z,65.30
2018-02-14T11:33:00.109Z,65.80
2018-02-14T11:35:27.673Z,65.50
2018-02-14T11:37:55.249Z,64.80
2018-02-14T11:40:22.882Z,64.70
2018-02-14T11:42:51.214Z,64.20
2018-02-14T11:45:18.770Z,64.20
2018-02-14T11:47:46.305Z,63.90
2018-02-14T11:50:13.866Z,63.00
2018-02-14T11:52:41.421Z,63.10
2018-02-14T11:55:08.988Z,63.40
2018-02-14T11:57:36.542Z,63.30
2018-02-14T12:00:04.107Z,62.60
2018-02-14T12:02:31.650Z,63.10
2018-02-14T12:04:59.977Z,62.40
2018-02-14T12:07:27.544Z,62.30
2018-02-14T12:09:55.121Z,62.10
2018-02-14T12:12:22.669Z,61.90
2018-02-14T12:14:50.489Z,62.10
2018-02-14T12:17:18.031Z,61.70
2018-02-14T12:19:45.597Z,60.50
2018-02-14T12:22:13.132Z,60.70
2018-02-14T12:24:40.697Z,60.00
2018-02-14T12:27:08.230Z,60.60
2018-02-14T12:29:35.782Z,59.90
2018-02-14T12:32:03.335Z,60.00
2018-02-14T12:34:31.668Z,59.60
2018-02-14T12:36:59.196Z,59.60
2018-02-14T12:39:27.539Z,59.50
2018-02-14T12:41:55.103Z,59.50
2018-02-14T12:44:22.667Z,60.30
2018-02-14T12:46:50.202Z,60.80
2018-02-14T12:49:18.528Z,59.50
2018-02-14T12:51:46.079Z,59.40
2018-02-14T12:54:13.658Z,59.40
2018-02-14T12:56:41.202Z,60.40
2018-02-14T12:59:09.528Z,59.10
2018-02-14T13:01:37.085Z,59.00
2018-02-14T13:04:04.635Z,59.10
2018-02-14T13:06:37.851Z,59.10
2018-02-14T13:09:06.148Z,59.80
2018-02-14T13:11:33.715Z,59.70
2018-02-14T13:14:01.256Z,59.30
2018-02-14T13:16:28.815Z,59.70
2018-02-14T13:18:56.349Z,58.60
2018-02-14T13:21:23.918Z,58.80
2018-02-14T13:23:51.442Z,59.00
2018-02-14T13:26:19.007Z,58.50
2018-02-14T13:28:46.534Z,58.80
2018-02-14T13:31:14.086Z,58.30
2018-02-14T13:33:42.393Z,58.50
2018-02-14T13:36:09.951Z,58.40
2018-02-14T13:38:38.246Z,58.40
2018-02-14T13:41:05.818Z,58.20
2018-02-14T13:43:33.354Z,57.90
2018-02-14T13:46:00.920Z,57.90
2018-02-14T13:48:28.461Z,58.20
2018-02-14T13:50:56.012Z,58.70
2018-02-14T13:53:23.542Z,58.30
2018-02-14T13:55:51.096Z,58.10
2018-02-14T13:58:18.636Z,57.60
2018-02-14T14:00:46.195Z,58.10
2018-02-14T14:03:13.738Z,58.10
2018-02-14T14:05:42.052Z,57.20
2018-02-14T14:08:09.597Z,57.20
2018-02-14T14:10:37.904Z,57.20
2018-02-14T14:13:05.476Z,57.20
2018-02-14T14:15:33.036Z,57.10
2018-02-14T14:18:01.355Z,57.90
2018-02-14T14:20:28.894Z,57.90
2018-02-14T14:22:57.228Z,57.20
2018-02-14T14:25:24.758Z,57.30
2018-02-14T14:27:53.113Z,57.80
2018-02-14T14:30:20.688Z,57.80
2018-02-14T14:32:48.290Z,57.00
2018-02-14T14:35:16.601Z,57.70
2018-02-14T14:37:44.929Z,57.40
2018-02-14T14:40:12.483Z,57.40
2018-02-14T14:42:40.046Z,57.30
2018-02-14T14:45:07.592Z,57.10
2018-02-14T14:47:35.930Z,57.70
2018-02-14T14:50:03.471Z,57.80
2018-02-14T14:52:31.040Z,57.50
2018-02-14T14:54:58.590Z,56.80
2018-02-14T14:57:26.933Z,56.50
2018-02-14T14:59:54.485Z,56.30
2018-02-14T15:02:22.049Z,56.70
2018-02-14T15:04:49.631Z,57.00
2018-02-14T15:07:17.189Z,57.00
2018-02-14T15:09:44.711Z,56.80
2018-02-14T15:12:12.274Z,55.60
2018-02-14T15:14:39.823Z,55.10
2018-02-14T15:17:07.384Z,54.90
2018-02-14T15:19:34.945Z,55.50
2018-02-14T15:22:02.517Z,54.70
2018-02-14T15:24:30.093Z,54.80
2018-02-14T15:26:57.626Z,54.70
2018-02-14T15:29:25.201Z,54.50
2018-02-14T15:31:52.753Z,54.50
2018-02-14T15:34:20.343Z,54.70
2018-02-14T15:36:47.902Z,54.70
2018-02-14T15:39:15.471Z,54.80
2018-02-14T15:41:43.033Z,54.70
2018-02-14T15:44:10.608Z,54.60
2018-02-14T15:46:38.156Z,54.30
2018-02-14T15:49:05.747Z,54.70
2018-02-14T15:51:33.280Z,54.90
2018-02-14T15:54:00.853Z,55.80
2018-02-14T15:56:28.404Z,54.80
2018-02-14T15:58:55.968Z,54.50
2018-02-14T16:01:23.537Z,55.30
2018-02-14T16:03:51.104Z,55.20
2018-02-14T16:06:18.652Z,55.30
2018-02-14T16:08:46.220Z,55.10
2018-02-14T16:11:13.763Z,55.50
2018-02-14T16:13:41.328Z,55.70
2018-02-14T16:16:08.874Z,55.80
2018-02-14T16:18:36.444Z,56.20
2018-02-14T16:21:03.978Z,56.40
2018-02-14T16:23:31.556Z,56.30
2018-02-14T16:25:59.173Z,56.80
2018-02-14T16:28:27.868Z,57.10
2018-02-14T16:30:55.430Z,56.30
2018-02-14T16:33:22.987Z,56.60
2018-02-14T16:35:50.576Z,57.30
2018-02-14T16:38:18.144Z,56.10
2018-02-14T16:40:45.705Z,56.60
2018-02-14T16:43:13.258Z,57.10
2018-02-14T16:45:40.839Z,57.70
2018-02-14T16:48:08.485Z,57.90
2018-02-14T16:50:36.078Z,58.00
2018-02-14T16:53:03.712Z,58.40
2018-02-14T16:55:32.050Z,59.50
2018-02-14T16:57:59.600Z,59.40
2018-02-14T17:00:27.161Z,59.50
2018-02-14T17:02:54.716Z,59.50
2018-02-14T17:05:22.296Z,59.50
2018-02-14T17:07:49.865Z,59.60
2018-02-14T17:10:17.434Z,59.70
2018-02-14T17:12:44.982Z,59.80
2018-02-14T17:15:12.552Z,60.20
2018-02-14T17:17:40.097Z,60.60
2018-02-14T17:20:07.657Z,60.20
2018-02-14T17:22:35.201Z,60.80
2018-02-14T17:25:02.769Z,60.60
2018-02-14T17:27:30.324Z,60.70
2018-02-14T17:29:58.661Z,61.10
2018-02-14T17:32:26.204Z,61.00
2018-02-14T17:34:53.761Z,61.90
2018-02-14T17:37:22.066Z,62.00
2018-02-14T17:39:49.612Z,62.00
2018-02-14T17:42:17.961Z,62.70
2018-02-14T17:44:45.501Z,62.70
2018-02-14T17:47:13.844Z,63.20
2018-02-14T17:49:41.388Z,63.30
2018-02-14T17:52:08.949Z,63.40
2018-02-14T17:54:36.497Z,63.50
2018-02-14T17:57:04.881Z,64.50
2018-02-14T17:59:32.443Z,64.50
2018-02-14T18:02:00.015Z,64.50
2018-02-14T18:04:27.560Z,64.60
2018-02-14T18:06:55.125Z,64.90
2018-02-14T18:09:22.664Z,65.00
2018-02-14T18:11:50.227Z,65.00
2018-02-14T18:14:17.781Z,64.90
2018-02-14T18:16:46.109Z,65.60
2018-02-14T18:19:13.680Z,65.30
2018-02-14T18:21:41.255Z,65.70
2018-02-14T18:24:08.849Z,65.90
2018-02-14T18:26:36.407Z,66.20
2018-02-14T18:29:03.946Z,66.20
2018-02-14T18:31:32.261Z,66.10
2018-02-14T18:33:59.818Z,66.10
2018-02-14T18:36:27.366Z,66.20
2018-02-14T18:38:55.012Z,66.10
2018-02-14T18:41:23.331Z,65.60
2018-02-14T18:43:51.648Z,65.30
2018-02-14T18:46:19.218Z,65.30
2018-02-14T18:48:46.762Z,65.70
2018-02-14T18:51:14.338Z,66.10
2018-02-14T18:53:41.906Z,65.50
2018-02-14T18:56:09.469Z,65.50
2018-02-14T18:58:37.022Z,65.40
2018-02-14T19:01:04.580Z,66.20
2018-02-14T19:03:32.172Z,66.10
2018-02-14T19:05:59.736Z,66.00
2018-02-14T19:08:27.305Z,66.00
2018-02-14T19:10:54.853Z,66.00
2018-02-14T19:13:22.422Z,66.00
2018-02-14T19:15:49.988Z,66.00
2018-02-14T19:18:17.552Z,66.00
2018-02-14T19:20:45.861Z,66.30
2018-02-14T19:23:13.419Z,66.20
2018-02-14T19:25:40.971Z,65.90
2018-02-14T19:28:09.345Z,66.00
2018-02-14T19:30:36.891Z,66.00
2018-02-14T19:33:04.466Z,65.90
2018-02-14T19:35:32.013Z,66.00
2018-02-14T19:37:59.604Z,66.00
2018-02-14T19:40:27.134Z,66.00
2018-02-14T19:42:54.713Z,66.20
2018-02-14T19:45:22.312Z,66.30
2018-02-14T19:47:50.156Z,67.00
2018-02-14T19:50:17.687Z,67.40
2018-02-14T19:52:45.255Z,67.50
2018-02-14T19:55:12.810Z,67.70
2018-02-14T19:57:40.357Z,67.90
2018-02-14T20:00:07.992Z,68.20
2018-02-14T20:02:35.553Z,68.30
2018-02-14T20:05:03.137Z,68.10
2018-02-14T20:07:30.679Z,68.20
2018-02-14T20:09:58.234Z,68.70
2018-02-14T20:12:25.813Z,68.90
2018-02-14T20:14:53.391Z,69.10
2018-02-14T20:17:20.928Z,69.00
2018-02-14T20:19:49.268Z,69.00
2018-02-14T20:22:16.811Z,69.00
2018-02-14T20:24:44.394Z,68.80
2018-02-14T20:27:11.974Z,69.10
2018-02-14T20:29:39.535Z,69.40
2018-02-14T20:32:07.098Z,69.20
2018-02-14T20:34:34.676Z,69.40
2018-02-14T20:37:02.233Z,69.60
2018-02-14T20:39:29.813Z,69.50
2018-02-14T20:41:57.366Z,69.70
2018-02-14T20:44:25.717Z,69.90
2018-02-14T20:46:53.269Z,69.80
2018-02-14T20:49:20.869Z,69.90
2018-02-14T20:51:48.430Z,69.60
2018-02-14T20:54:16.013Z,69.60
2018-02-14T20:56:43.599Z,69.60
2018-02-14T20:59:11.957Z,69.40
2018-02-14T21:01:39.527Z,69.40
2018-02-14T21:04:07.110Z,69.40
2018-02-14T21:06:34.670Z,69.40
2018-02-14T21:09:02.226Z,69.40
2018-02-14T21:11:29.872Z,69.60
2018-02-14T21:13:58.196Z,69.90
2018-02-14T21:16:25.765Z,69.90
2018-02-14T21:18:53.319Z,70.30
2018-02-14T21:21:20.876Z,70.50
2018-02-14T21:23:49.220Z,70.60
2018-02-14T21:26:16.781Z,70.60
2018-02-14T21:28:44.326Z,70.60
2018-02-14T21:31:12.278Z,70.50
2018-02-14T21:33:39.857Z,70.10
2018-02-14T21:36:07.457Z,69.60
2018-02-14T21:38:35.036Z,69.60
2018-02-14T21:41:02.616Z,69.20
2018-02-14T21:43:30.216Z,69.20
2018-02-14T21:45:57.770Z,69.20
2018-02-14T21:48:25.306Z,69.10
2018-02-14T21:50:52.881Z,69.20
2018-02-14T21:53:21.193Z,69.70
2018-02-14T21:55:48.753Z,69.70
2018-02-14T21:58:16.337Z,69.70
2018-02-14T22:00:43.934Z,69.80
2018-02-14T22:03:11.466Z,70.10
2018-02-14T22:05:39.047Z,70.00
2018-02-14T22:08:06.594Z,70.00
2018-02-14T22:10:34.940Z,70.10
2018-02-14T22:13:02.482Z,70.10
2018-02-14T22:15:30.042Z,70.00
2018-02-14T22:17:58.398Z,69.70
2018-02-14T22:20:26.415Z,69.60
2018-02-14T22:22:54.372Z,70.00
2018-02-14T22:25:28.485Z,69.80
2018-02-14T22:27:56.374Z,69.80
2018-02-14T22:30:25.486Z,70.00
2018-02-14T22:32:53.438Z,70.00
2018-02-14T22:35:21.423Z,70.30
2018-02-14T22:37:50.268Z,70.60
2018-02-14T22:40:18.798Z,70.50
2018-02-14T22:42:46.370Z,70.40
2018-02-14T22:45:13.916Z,70.40
2018-02-14T22:47:42.259Z,70.80
2018-02-14T22:50:09.778Z,70.80
2018-02-14T22:52:38.087Z,71.10
2018-02-14T22:55:05.619Z,71.10
2018-02-14T22:57:33.188Z,71.30
2018-02-14T23:00:00.708Z,71.70
2018-02-14T23:02:28.281Z,72.10
2018-02-14T23:04:55.825Z,71.90
2018-02-14T23:07:24.206Z,72.00
2018-02-14T23:09:51.733Z,72.00
2018-02-14T23:12:19.320Z,72.30
2018-02-14T23:14:46.857Z,72.50
2018-02-14T23:17:14.447Z,72.50
2018-02-14T23:19:42.024Z,72.60
2018-02-14T23:22:09.569Z,72.40
2018-02-14T23:24:37.098Z,72.40
2018-02-14T23:27:04.656Z,72.80
2018-02-14T23:29:32.216Z,72.40
2018-02-14T23:31:59.765Z,72.80
2018-02-14T23:34:27.334Z,72.80
2018-02-14T23:36:54.884Z,72.80
2018-02-14T23:39:23.181Z,72.80
2018-02-14T23:41:51.484Z,72.80
2018-02-14T23:44:19.006Z,72.80
2018-02-14T23:46:46.581Z,72.80
2018-02-14T23:49:14.129Z,72.80
2018-02-14T23:51:42.447Z,72.90
2018-02-14T23:54:10.002Z,72.90
2018-02-14T23:56:37.585Z,72.90
2018-02-14T23:59:05.134Z,72.90
